sensor_id;sensor_type;location;lat;lon;timestamp;P1;durP1;ratioP1;P2;durP2;ratioP2
20179;SDS011;10249;48.900;9.090;2022-12-10T00:01:05;10.60;;;10.20;;
20179;SDS011;10249;48.900;9.090;2022-12-10T00:03:33;10.90;;;10.50;;
20179;SDS011;10249;48.900;9.090;2022-12-10T00:06:00;12.80;;;12.23;;
20179;SDS011;10249;48.900;9.090;2022-12-10T00:08:27;10.30;;;10.00;;
20179;SDS011;10249;48.900;9.090;2022-12-10T00:10:54;10.73;;;10.33;;
20179;SDS011;10249;48.900;9.090;2022-12-10T00:13:23;11.23;;;10.83;;
20179;SDS011;10249;48.900;9.090;2022-12-10T00:15:50;13.17;;;12.23;;
20179;SDS011;10249;48.900;9.090;2022-12-10T00:18:17;11.43;;;11.03;;
20179;SDS011;10249;48.900;9.090;2022-12-10T00:20:44;13.40;;;12.40;;
20179;SDS011;10249;48.900;9.090;2022-12-10T00:23:11;9.93;;;9.63;;
20179;SDS011;10249;48.900;9.090;2022-12-10T00:25:38;10.50;;;10.20;;
20179;SDS011;10249;48.900;9.090;2022-12-10T00:28:06;10.10;;;9.80;;
20179;SDS011;10249;48.900;9.090;2022-12-10T00:30:34;12.83;;;12.10;;
20179;SDS011;10249;48.900;9.090;2022-12-10T00:33:01;16.43;;;15.73;;
20179;SDS011;10249;48.900;9.090;2022-12-10T00:35:28;10.50;;;10.10;;
20179;SDS011;10249;48.900;9.090;2022-12-10T00:37:56;10.20;;;9.90;;
20179;SDS011;10249;48.900;9.090;2022-12-10T00:40:23;12.07;;;11.57;;
20179;SDS011;10249;48.900;9.090;2022-12-10T00:42:50;11.30;;;10.90;;
20179;SDS011;10249;48.900;9.090;2022-12-10T00:45:17;11.87;;;11.47;;
20179;SDS011;10249;48.900;9.090;2022-12-10T00:47:45;10.00;;;9.70;;
20179;SDS011;10249;48.900;9.090;2022-12-10T00:50:12;10.03;;;9.73;;
20179;SDS011;10249;48.900;9.090;2022-12-10T00:52:39;11.50;;;11.10;;
20179;SDS011;10249;48.900;9.090;2022-12-10T00:55:07;9.83;;;9.53;;
20179;SDS011;10249;48.900;9.090;2022-12-10T00:57:34;13.50;;;12.77;;
20179;SDS011;10249;48.900;9.090;2022-12-10T01:00:01;9.80;;;9.50;;
20179;SDS011;10249;48.900;9.090;2022-12-10T01:02:28;9.40;;;9.10;;
20179;SDS011;10249;48.900;9.090;2022-12-10T01:04:56;19.83;;;17.40;;
20179;SDS011;10249;48.900;9.090;2022-12-10T01:07:23;12.43;;;11.77;;
20179;SDS011;10249;48.900;9.090;2022-12-10T01:09:51;10.00;;;9.70;;
20179;SDS011;10249;48.900;9.090;2022-12-10T01:12:18;9.83;;;9.53;;
20179;SDS011;10249;48.900;9.090;2022-12-10T01:14:45;10.10;;;9.80;;
20179;SDS011;10249;48.900;9.090;2022-12-10T01:17:12;10.10;;;9.80;;
20179;SDS011;10249;48.900;9.090;2022-12-10T01:19:39;10.50;;;10.20;;
20179;SDS011;10249;48.900;9.090;2022-12-10T01:22:07;10.30;;;10.00;;
20179;SDS011;10249;48.900;9.090;2022-12-10T01:24:34;12.93;;;12.23;;
20179;SDS011;10249;48.900;9.090;2022-12-10T01:27:01;13.83;;;13.00;;
20179;SDS011;10249;48.900;9.090;2022-12-10T01:29:29;12.80;;;11.87;;
20179;SDS011;10249;48.900;9.090;2022-12-10T01:31:56;11.83;;;11.40;;
20179;SDS011;10249;48.900;9.090;2022-12-10T01:34:23;10.10;;;9.80;;
20179;SDS011;10249;48.900;9.090;2022-12-10T01:36:52;9.57;;;9.27;;
20179;SDS011;10249;48.900;9.090;2022-12-10T01:39:20;10.97;;;10.47;;
20179;SDS011;10249;48.900;9.090;2022-12-10T01:41:49;9.70;;;9.40;;
20179;SDS011;10249;48.900;9.090;2022-12-10T01:47:01;9.70;;;9.40;;
20179;SDS011;10249;48.900;9.090;2022-12-10T01:49:31;10.00;;;9.70;;
20179;SDS011;10249;48.900;9.090;2022-12-10T01:51:59;13.03;;;12.53;;
20179;SDS011;10249;48.900;9.090;2022-12-10T01:54:28;10.40;;;10.10;;
20179;SDS011;10249;48.900;9.090;2022-12-10T01:56:57;12.20;;;11.70;;
20179;SDS011;10249;48.900;9.090;2022-12-10T01:59:25;17.73;;;16.30;;
20179;SDS011;10249;48.900;9.090;2022-12-10T02:01:53;10.43;;;10.13;;
20179;SDS011;10249;48.900;9.090;2022-12-10T02:04:25;11.70;;;11.30;;
20179;SDS011;10249;48.900;9.090;2022-12-10T02:06:56;15.17;;;14.00;;
20179;SDS011;10249;48.900;9.090;2022-12-10T02:09:30;10.03;;;9.73;;
20179;SDS011;10249;48.900;9.090;2022-12-10T02:12:01;9.30;;;9.00;;
20179;SDS011;10249;48.900;9.090;2022-12-10T02:14:30;9.80;;;9.50;;
20179;SDS011;10249;48.900;9.090;2022-12-10T02:17:01;10.87;;;10.47;;
20179;SDS011;10249;48.900;9.090;2022-12-10T02:19:34;9.90;;;9.60;;
20179;SDS011;10249;48.900;9.090;2022-12-10T02:22:05;9.83;;;9.53;;
20179;SDS011;10249;48.900;9.090;2022-12-10T02:24:34;10.10;;;9.80;;
20179;SDS011;10249;48.900;9.090;2022-12-10T02:27:03;9.93;;;9.63;;
20179;SDS011;10249;48.900;9.090;2022-12-10T02:29:33;10.40;;;10.10;;
20179;SDS011;10249;48.900;9.090;2022-12-10T02:32:02;12.70;;;12.20;;
20179;SDS011;10249;48.900;9.090;2022-12-10T02:34:31;9.90;;;9.60;;
20179;SDS011;10249;48.900;9.090;2022-12-10T02:37:00;9.87;;;9.57;;
20179;SDS011;10249;48.900;9.090;2022-12-10T02:39:29;9.40;;;9.10;;
20179;SDS011;10249;48.900;9.090;2022-12-10T02:41:58;9.80;;;9.50;;
20179;SDS011;10249;48.900;9.090;2022-12-10T02:44:26;9.80;;;9.50;;
20179;SDS011;10249;48.900;9.090;2022-12-10T02:46:56;10.10;;;9.80;;
20179;SDS011;10249;48.900;9.090;2022-12-10T02:49:24;12.10;;;11.50;;
20179;SDS011;10249;48.900;9.090;2022-12-10T02:51:52;12.87;;;12.30;;
20179;SDS011;10249;48.900;9.090;2022-12-10T02:54:39;9.60;;;9.30;;
20179;SDS011;10249;48.900;9.090;2022-12-10T02:57:15;9.53;;;9.23;;
20179;SDS011;10249;48.900;9.090;2022-12-10T02:59:47;9.57;;;9.27;;
20179;SDS011;10249;48.900;9.090;2022-12-10T03:02:19;9.93;;;9.63;;
20179;SDS011;10249;48.900;9.090;2022-12-10T03:04:51;10.13;;;9.83;;
20179;SDS011;10249;48.900;9.090;2022-12-10T03:07:25;10.27;;;9.97;;
20179;SDS011;10249;48.900;9.090;2022-12-10T03:09:54;10.57;;;10.23;;
20179;SDS011;10249;48.900;9.090;2022-12-10T03:12:24;10.97;;;10.57;;
20179;SDS011;10249;48.900;9.090;2022-12-10T03:14:54;10.20;;;9.90;;
20179;SDS011;10249;48.900;9.090;2022-12-10T03:17:26;11.83;;;11.20;;
20179;SDS011;10249;48.900;9.090;2022-12-10T03:19:54;10.20;;;9.90;;
20179;SDS011;10249;48.900;9.090;2022-12-10T03:22:22;9.50;;;9.20;;
20179;SDS011;10249;48.900;9.090;2022-12-10T03:24:49;9.60;;;9.30;;
20179;SDS011;10249;48.900;9.090;2022-12-10T03:27:17;9.20;;;8.90;;
20179;SDS011;10249;48.900;9.090;2022-12-10T03:29:46;11.03;;;10.70;;
20179;SDS011;10249;48.900;9.090;2022-12-10T03:32:14;9.40;;;9.10;;
20179;SDS011;10249;48.900;9.090;2022-12-10T03:34:43;10.20;;;9.90;;
20179;SDS011;10249;48.900;9.090;2022-12-10T03:37:10;9.70;;;9.40;;
20179;SDS011;10249;48.900;9.090;2022-12-10T03:39:38;9.90;;;9.60;;
20179;SDS011;10249;48.900;9.090;2022-12-10T03:42:05;11.57;;;11.07;;
20179;SDS011;10249;48.900;9.090;2022-12-10T03:44:33;9.30;;;9.00;;
20179;SDS011;10249;48.900;9.090;2022-12-10T03:47:01;15.00;;;14.50;;
20179;SDS011;10249;48.900;9.090;2022-12-10T03:49:28;9.40;;;9.10;;
20179;SDS011;10249;48.900;9.090;2022-12-10T03:51:57;9.07;;;8.77;;
20179;SDS011;10249;48.900;9.090;2022-12-10T03:54:24;9.67;;;9.37;;
20179;SDS011;10249;48.900;9.090;2022-12-10T03:56:51;24.63;;;20.00;;
20179;SDS011;10249;48.900;9.090;2022-12-10T03:59:18;9.97;;;9.67;;
20179;SDS011;10249;48.900;9.090;2022-12-10T04:01:45;25.47;;;19.47;;
20179;SDS011;10249;48.900;9.090;2022-12-10T04:04:12;25.27;;;19.23;;
20179;SDS011;10249;48.900;9.090;2022-12-10T04:06:39;28.97;;;21.87;;
20179;SDS011;10249;48.900;9.090;2022-12-10T04:09:10;19.63;;;15.77;;
20179;SDS011;10249;48.900;9.090;2022-12-10T04:11:37;11.17;;;10.20;;
20179;SDS011;10249;48.900;9.090;2022-12-10T04:14:04;8.80;;;8.20;;
20179;SDS011;10249;48.900;9.090;2022-12-10T04:16:49;11.50;;;11.00;;
20179;SDS011;10249;48.900;9.090;2022-12-10T04:19:16;20.50;;;17.03;;
20179;SDS011;10249;48.900;9.090;2022-12-10T04:21:44;13.67;;;12.57;;
20179;SDS011;10249;48.900;9.090;2022-12-10T04:24:31;15.33;;;14.07;;
20179;SDS011;10249;48.900;9.090;2022-12-10T04:27:17;14.00;;;13.13;;
20179;SDS011;10249;48.900;9.090;2022-12-10T04:29:45;15.07;;;13.73;;
20179;SDS011;10249;48.900;9.090;2022-12-10T04:32:12;22.43;;;16.93;;
20179;SDS011;10249;48.900;9.090;2022-12-10T04:34:39;30.60;;;21.57;;
20179;SDS011;10249;48.900;9.090;2022-12-10T04:37:06;16.10;;;14.47;;
20179;SDS011;10249;48.900;9.090;2022-12-10T04:39:34;13.80;;;13.20;;
20179;SDS011;10249;48.900;9.090;2022-12-10T04:42:02;9.37;;;9.07;;
20179;SDS011;10249;48.900;9.090;2022-12-10T04:44:29;7.80;;;7.60;;
20179;SDS011;10249;48.900;9.090;2022-12-10T04:46:56;10.90;;;10.27;;
20179;SDS011;10249;48.900;9.090;2022-12-10T04:49:23;29.57;;;21.60;;
20179;SDS011;10249;48.900;9.090;2022-12-10T04:51:50;15.53;;;14.27;;
20179;SDS011;10249;48.900;9.090;2022-12-10T04:54:18;13.93;;;12.63;;
20179;SDS011;10249;48.900;9.090;2022-12-10T04:56:46;23.70;;;18.93;;
20179;SDS011;10249;48.900;9.090;2022-12-10T04:59:13;10.63;;;10.17;;
20179;SDS011;10249;48.900;9.090;2022-12-10T05:01:41;10.50;;;9.77;;
20179;SDS011;10249;48.900;9.090;2022-12-10T05:04:09;11.00;;;10.50;;
20179;SDS011;10249;48.900;9.090;2022-12-10T05:06:37;10.83;;;10.17;;
20179;SDS011;10249;48.900;9.090;2022-12-10T05:09:05;9.77;;;9.37;;
20179;SDS011;10249;48.900;9.090;2022-12-10T05:11:32;8.47;;;8.17;;
20179;SDS011;10249;48.900;9.090;2022-12-10T05:14:01;7.37;;;7.17;;
20179;SDS011;10249;48.900;9.090;2022-12-10T05:16:29;9.57;;;9.27;;
20179;SDS011;10249;48.900;9.090;2022-12-10T05:18:56;8.57;;;8.20;;
20179;SDS011;10249;48.900;9.090;2022-12-10T05:21:24;9.17;;;8.87;;
20179;SDS011;10249;48.900;9.090;2022-12-10T05:24:12;18.47;;;15.23;;
20179;SDS011;10249;48.900;9.090;2022-12-10T05:26:39;8.33;;;8.03;;
20179;SDS011;10249;48.900;9.090;2022-12-10T05:29:07;20.20;;;18.00;;
20179;SDS011;10249;48.900;9.090;2022-12-10T05:31:34;10.10;;;9.77;;
20179;SDS011;10249;48.900;9.090;2022-12-10T05:34:01;17.67;;;15.30;;
20179;SDS011;10249;48.900;9.090;2022-12-10T05:36:29;11.20;;;10.70;;
20179;SDS011;10249;48.900;9.090;2022-12-10T05:38:57;17.03;;;15.50;;
20179;SDS011;10249;48.900;9.090;2022-12-10T05:41:25;27.97;;;19.53;;
20179;SDS011;10249;48.900;9.090;2022-12-10T05:43:53;23.57;;;18.10;;
20179;SDS011;10249;48.900;9.090;2022-12-10T05:46:22;14.10;;;13.00;;
20179;SDS011;10249;48.900;9.090;2022-12-10T05:48:49;20.90;;;16.73;;
20179;SDS011;10249;48.900;9.090;2022-12-10T05:51:17;12.27;;;11.57;;
20179;SDS011;10249;48.900;9.090;2022-12-10T05:53:44;19.13;;;17.10;;
20179;SDS011;10249;48.900;9.090;2022-12-10T05:56:12;26.60;;;20.20;;
20179;SDS011;10249;48.900;9.090;2022-12-10T05:58:40;11.33;;;10.83;;
20179;SDS011;10249;48.900;9.090;2022-12-10T06:01:08;10.73;;;10.27;;
20179;SDS011;10249;48.900;9.090;2022-12-10T06:03:37;11.33;;;10.43;;
20179;SDS011;10249;48.900;9.090;2022-12-10T06:06:04;7.80;;;7.60;;
20179;SDS011;10249;48.900;9.090;2022-12-10T06:08:32;8.30;;;8.00;;
20179;SDS011;10249;48.900;9.090;2022-12-10T06:11:00;13.73;;;12.50;;
20179;SDS011;10249;48.900;9.090;2022-12-10T06:13:27;10.20;;;9.63;;
20179;SDS011;10249;48.900;9.090;2022-12-10T06:15:54;16.10;;;15.00;;
20179;SDS011;10249;48.900;9.090;2022-12-10T06:18:21;9.17;;;8.87;;
20179;SDS011;10249;48.900;9.090;2022-12-10T06:20:50;8.90;;;8.60;;
20179;SDS011;10249;48.900;9.090;2022-12-10T06:23:17;13.60;;;12.90;;
20179;SDS011;10249;48.900;9.090;2022-12-10T06:25:44;11.17;;;10.70;;
20179;SDS011;10249;48.900;9.090;2022-12-10T06:28:11;9.30;;;9.00;;
20179;SDS011;10249;48.900;9.090;2022-12-10T06:30:38;23.87;;;19.43;;
20179;SDS011;10249;48.900;9.090;2022-12-10T06:33:05;9.30;;;9.00;;
20179;SDS011;10249;48.900;9.090;2022-12-10T06:35:33;9.53;;;9.23;;
20179;SDS011;10249;48.900;9.090;2022-12-10T06:38:01;9.40;;;9.10;;
20179;SDS011;10249;48.900;9.090;2022-12-10T06:40:28;15.48;;;14.43;;
20179;SDS011;10249;48.900;9.090;2022-12-10T06:42:55;10.20;;;9.80;;
20179;SDS011;10249;48.900;9.090;2022-12-10T06:45:22;9.80;;;9.50;;
20179;SDS011;10249;48.900;9.090;2022-12-10T06:47:50;10.80;;;10.13;;
20179;SDS011;10249;48.900;9.090;2022-12-10T06:50:17;10.13;;;9.80;;
20179;SDS011;10249;48.900;9.090;2022-12-10T06:52:44;41.50;;;25.83;;
20179;SDS011;10249;48.900;9.090;2022-12-10T06:55:12;10.40;;;10.10;;
20179;SDS011;10249;48.900;9.090;2022-12-10T06:57:39;11.03;;;10.63;;
20179;SDS011;10249;48.900;9.090;2022-12-10T07:00:07;21.07;;;18.83;;
20179;SDS011;10249;48.900;9.090;2022-12-10T07:02:35;12.73;;;11.90;;
20179;SDS011;10249;48.900;9.090;2022-12-10T07:05:02;13.57;;;13.00;;
20179;SDS011;10249;48.900;9.090;2022-12-10T07:07:29;9.90;;;9.60;;
20179;SDS011;10249;48.900;9.090;2022-12-10T07:09:56;18.63;;;16.83;;
20179;SDS011;10249;48.900;9.090;2022-12-10T07:12:25;10.03;;;9.73;;
20179;SDS011;10249;48.900;9.090;2022-12-10T07:14:52;10.27;;;9.97;;
20179;SDS011;10249;48.900;9.090;2022-12-10T07:17:19;12.83;;;12.00;;
20179;SDS011;10249;48.900;9.090;2022-12-10T07:19:46;10.53;;;10.20;;
20179;SDS011;10249;48.900;9.090;2022-12-10T07:22:13;17.80;;;16.37;;
20179;SDS011;10249;48.900;9.090;2022-12-10T07:24:40;15.50;;;14.23;;
20179;SDS011;10249;48.900;9.090;2022-12-10T07:27:07;16.37;;;15.07;;
20179;SDS011;10249;48.900;9.090;2022-12-10T07:29:36;10.50;;;10.20;;
20179;SDS011;10249;48.900;9.090;2022-12-10T07:32:03;27.20;;;23.80;;
20179;SDS011;10249;48.900;9.090;2022-12-10T07:34:30;16.80;;;15.73;;
20179;SDS011;10249;48.900;9.090;2022-12-10T07:36:57;29.50;;;22.73;;
20179;SDS011;10249;48.900;9.090;2022-12-10T07:39:24;17.57;;;15.73;;
20179;SDS011;10249;48.900;9.090;2022-12-10T07:41:51;22.27;;;20.23;;
20179;SDS011;10249;48.900;9.090;2022-12-10T07:44:19;22.10;;;19.80;;
20179;SDS011;10249;48.900;9.090;2022-12-10T07:46:48;27.53;;;23.03;;
20179;SDS011;10249;48.900;9.090;2022-12-10T07:49:15;23.17;;;18.87;;
20179;SDS011;10249;48.900;9.090;2022-12-10T07:51:43;20.60;;;18.43;;
20179;SDS011;10249;48.900;9.090;2022-12-10T07:54:10;18.37;;;14.60;;
20179;SDS011;10249;48.900;9.090;2022-12-10T07:56:37;9.70;;;9.40;;
20179;SDS011;10249;48.900;9.090;2022-12-10T07:59:04;22.10;;;19.03;;
20179;SDS011;10249;48.900;9.090;2022-12-10T08:01:31;17.63;;;15.83;;
20179;SDS011;10249;48.900;9.090;2022-12-10T08:04:00;9.57;;;9.27;;
20179;SDS011;10249;48.900;9.090;2022-12-10T08:06:28;15.53;;;14.37;;
20179;SDS011;10249;48.900;9.090;2022-12-10T08:08:55;17.63;;;15.67;;
20179;SDS011;10249;48.900;9.090;2022-12-10T08:11:22;29.37;;;22.17;;
20179;SDS011;10249;48.900;9.090;2022-12-10T08:13:51;37.97;;;26.57;;
20179;SDS011;10249;48.900;9.090;2022-12-10T08:16:19;14.77;;;13.07;;
20179;SDS011;10249;48.900;9.090;2022-12-10T08:18:50;30.57;;;22.87;;
20179;SDS011;10249;48.900;9.090;2022-12-10T08:21:19;34.10;;;26.37;;
20179;SDS011;10249;48.900;9.090;2022-12-10T08:23:47;24.67;;;21.93;;
20179;SDS011;10249;48.900;9.090;2022-12-10T08:26:15;32.53;;;22.73;;
20179;SDS011;10249;48.900;9.090;2022-12-10T08:28:42;33.97;;;25.73;;
20179;SDS011;10249;48.900;9.090;2022-12-10T08:31:09;27.40;;;23.27;;
20179;SDS011;10249;48.900;9.090;2022-12-10T08:33:37;14.57;;;13.57;;
20179;SDS011;10249;48.900;9.090;2022-12-10T08:36:05;37.93;;;28.80;;
20179;SDS011;10249;48.900;9.090;2022-12-10T08:38:34;16.13;;;14.80;;
20179;SDS011;10249;48.900;9.090;2022-12-10T08:41:05;14.60;;;13.37;;
20179;SDS011;10249;48.900;9.090;2022-12-10T08:43:32;11.17;;;10.70;;
20179;SDS011;10249;48.900;9.090;2022-12-10T08:45:59;21.73;;;19.43;;
20179;SDS011;10249;48.900;9.090;2022-12-10T08:48:27;28.07;;;22.33;;
20179;SDS011;10249;48.900;9.090;2022-12-10T08:50:54;10.10;;;9.80;;
20179;SDS011;10249;48.900;9.090;2022-12-10T08:53:21;10.20;;;9.87;;
20179;SDS011;10249;48.900;9.090;2022-12-10T08:55:50;22.23;;;19.87;;
20179;SDS011;10249;48.900;9.090;2022-12-10T08:58:17;11.57;;;10.93;;
20179;SDS011;10249;48.900;9.090;2022-12-10T09:00:44;12.10;;;11.70;;
20179;SDS011;10249;48.900;9.090;2022-12-10T09:03:12;18.60;;;16.87;;
20179;SDS011;10249;48.900;9.090;2022-12-10T09:05:39;22.20;;;19.57;;
20179;SDS011;10249;48.900;9.090;2022-12-10T09:08:06;26.07;;;21.40;;
20179;SDS011;10249;48.900;9.090;2022-12-10T09:10:34;11.27;;;10.87;;
20179;SDS011;10249;48.900;9.090;2022-12-10T09:13:03;15.27;;;14.47;;
20179;SDS011;10249;48.900;9.090;2022-12-10T09:15:30;14.53;;;13.67;;
20179;SDS011;10249;48.900;9.090;2022-12-10T09:17:57;19.90;;;18.07;;
20179;SDS011;10249;48.900;9.090;2022-12-10T09:20:25;17.13;;;16.13;;
20179;SDS011;10249;48.900;9.090;2022-12-10T09:22:52;27.27;;;24.27;;
20179;SDS011;10249;48.900;9.090;2022-12-10T09:25:19;14.57;;;13.50;;
20179;SDS011;10249;48.900;9.090;2022-12-10T09:27:46;11.90;;;11.50;;
20179;SDS011;10249;48.900;9.090;2022-12-10T09:30:15;11.53;;;11.13;;
20179;SDS011;10249;48.900;9.090;2022-12-10T09:32:42;27.57;;;23.20;;
20179;SDS011;10249;48.900;9.090;2022-12-10T09:35:09;17.97;;;16.70;;
20179;SDS011;10249;48.900;9.090;2022-12-10T09:37:36;20.90;;;19.17;;
20179;SDS011;10249;48.900;9.090;2022-12-10T09:40:04;13.67;;;13.07;;
20179;SDS011;10249;48.900;9.090;2022-12-10T09:42:36;13.60;;;13.00;;
20179;SDS011;10249;48.900;9.090;2022-12-10T09:45:07;29.70;;;24.73;;
20179;SDS011;10249;48.900;9.090;2022-12-10T09:47:40;29.10;;;24.57;;
20179;SDS011;10249;48.900;9.090;2022-12-10T09:50:12;20.63;;;19.20;;
20179;SDS011;10249;48.900;9.090;2022-12-10T09:52:43;32.73;;;28.10;;
20179;SDS011;10249;48.900;9.090;2022-12-10T09:55:13;23.40;;;21.37;;
20179;SDS011;10249;48.900;9.090;2022-12-10T09:57:41;31.73;;;28.20;;
20179;SDS011;10249;48.900;9.090;2022-12-10T10:00:17;29.30;;;25.20;;
20179;SDS011;10249;48.900;9.090;2022-12-10T10:02:46;29.27;;;26.03;;
20179;SDS011;10249;48.900;9.090;2022-12-10T10:05:14;21.30;;;19.50;;
20179;SDS011;10249;48.900;9.090;2022-12-10T10:07:43;21.77;;;19.80;;
20179;SDS011;10249;48.900;9.090;2022-12-10T10:10:16;29.23;;;24.63;;
20179;SDS011;10249;48.900;9.090;2022-12-10T10:12:45;26.00;;;23.50;;
20179;SDS011;10249;48.900;9.090;2022-12-10T10:15:14;13.20;;;12.50;;
20179;SDS011;10249;48.900;9.090;2022-12-10T10:17:41;24.23;;;21.93;;
20179;SDS011;10249;48.900;9.090;2022-12-10T10:20:13;16.93;;;15.77;;
20179;SDS011;10249;48.900;9.090;2022-12-10T10:22:40;23.33;;;21.03;;
20179;SDS011;10249;48.900;9.090;2022-12-10T10:25:09;23.33;;;21.23;;
20179;SDS011;10249;48.900;9.090;2022-12-10T10:27:40;26.27;;;23.47;;
20179;SDS011;10249;48.900;9.090;2022-12-10T10:30:12;28.67;;;25.07;;
20179;SDS011;10249;48.900;9.090;2022-12-10T10:32:46;12.83;;;12.43;;
20179;SDS011;10249;48.900;9.090;2022-12-10T10:35:21;25.30;;;22.77;;
20179;SDS011;10249;48.900;9.090;2022-12-10T10:37:49;23.37;;;21.20;;
20179;SDS011;10249;48.900;9.090;2022-12-10T10:40:21;29.87;;;25.87;;
20179;SDS011;10249;48.900;9.090;2022-12-10T10:42:48;27.90;;;24.67;;
20179;SDS011;10249;48.900;9.090;2022-12-10T10:45:31;25.53;;;23.10;;
20179;SDS011;10249;48.900;9.090;2022-12-10T10:48:03;28.20;;;25.10;;
20179;SDS011;10249;48.900;9.090;2022-12-10T10:50:32;12.00;;;11.60;;
20179;SDS011;10249;48.900;9.090;2022-12-10T10:55:45;16.53;;;15.43;;
20179;SDS011;10249;48.900;9.090;2022-12-10T10:58:15;26.63;;;23.97;;
20179;SDS011;10249;48.900;9.090;2022-12-10T11:00:52;17.17;;;15.97;;
20179;SDS011;10249;48.900;9.090;2022-12-10T11:03:19;31.67;;;27.27;;
20179;SDS011;10249;48.900;9.090;2022-12-10T11:05:48;26.67;;;23.83;;
20179;SDS011;10249;48.900;9.090;2022-12-10T11:08:16;13.87;;;13.33;;
20179;SDS011;10249;48.900;9.090;2022-12-10T11:10:46;30.37;;;27.23;;
20179;SDS011;10249;48.900;9.090;2022-12-10T11:13:18;13.23;;;12.73;;
20179;SDS011;10249;48.900;9.090;2022-12-10T11:15:45;31.13;;;27.73;;
20179;SDS011;10249;48.900;9.090;2022-12-10T11:18:22;25.57;;;23.20;;
20179;SDS011;10249;48.900;9.090;2022-12-10T11:20:57;27.50;;;24.90;;
20179;SDS011;10249;48.900;9.090;2022-12-10T11:23:26;21.07;;;18.93;;
20179;SDS011;10249;48.900;9.090;2022-12-10T11:25:55;25.40;;;22.33;;
20179;SDS011;10249;48.900;9.090;2022-12-10T11:28:28;14.30;;;13.70;;
20179;SDS011;10249;48.900;9.090;2022-12-10T11:31:03;30.07;;;26.13;;
20179;SDS011;10249;48.900;9.090;2022-12-10T11:33:34;17.17;;;16.10;;
20179;SDS011;10249;48.900;9.090;2022-12-10T11:36:08;12.70;;;12.23;;
20179;SDS011;10249;48.900;9.090;2022-12-10T11:38:41;14.67;;;14.07;;
20179;SDS011;10249;48.900;9.090;2022-12-10T11:41:14;23.33;;;21.27;;
20179;SDS011;10249;48.900;9.090;2022-12-10T11:43:47;23.57;;;21.37;;
20179;SDS011;10249;48.900;9.090;2022-12-10T11:46:23;17.00;;;15.73;;
20179;SDS011;10249;48.900;9.090;2022-12-10T11:48:55;28.27;;;25.47;;
20179;SDS011;10249;48.900;9.090;2022-12-10T11:51:30;21.97;;;19.97;;
20179;SDS011;10249;48.900;9.090;2022-12-10T11:54:02;26.47;;;23.93;;
20179;SDS011;10249;48.900;9.090;2022-12-10T11:56:33;26.40;;;23.63;;
20179;SDS011;10249;48.900;9.090;2022-12-10T11:59:04;16.53;;;14.83;;
20179;SDS011;10249;48.900;9.090;2022-12-10T12:01:47;30.37;;;27.30;;
20179;SDS011;10249;48.900;9.090;2022-12-10T12:04:31;22.60;;;20.50;;
20179;SDS011;10249;48.900;9.090;2022-12-10T12:07:17;21.93;;;19.73;;
20179;SDS011;10249;48.900;9.090;2022-12-10T12:09:50;23.73;;;21.30;;
20179;SDS011;10249;48.900;9.090;2022-12-10T12:12:23;18.40;;;17.27;;
20179;SDS011;10249;48.900;9.090;2022-12-10T12:14:54;30.00;;;23.30;;
20179;SDS011;10249;48.900;9.090;2022-12-10T12:17:24;31.13;;;27.67;;
20179;SDS011;10249;48.900;9.090;2022-12-10T12:19:52;22.80;;;20.50;;
20179;SDS011;10249;48.900;9.090;2022-12-10T12:22:23;31.50;;;26.93;;
20179;SDS011;10249;48.900;9.090;2022-12-10T12:24:50;25.07;;;22.57;;
20179;SDS011;10249;48.900;9.090;2022-12-10T12:27:21;36.73;;;30.63;;
20179;SDS011;10249;48.900;9.090;2022-12-10T12:29:51;15.77;;;14.87;;
20179;SDS011;10249;48.900;9.090;2022-12-10T12:32:24;23.90;;;21.40;;
20179;SDS011;10249;48.900;9.090;2022-12-10T12:34:53;19.30;;;17.97;;
20179;SDS011;10249;48.900;9.090;2022-12-10T12:37:24;21.73;;;19.63;;
20179;SDS011;10249;48.900;9.090;2022-12-10T12:39:57;31.40;;;25.37;;
20179;SDS011;10249;48.900;9.090;2022-12-10T12:42:29;24.30;;;21.73;;
20179;SDS011;10249;48.900;9.090;2022-12-10T12:44:59;36.30;;;25.97;;
20179;SDS011;10249;48.900;9.090;2022-12-10T12:47:31;33.73;;;25.57;;
20179;SDS011;10249;48.900;9.090;2022-12-10T12:49:59;34.67;;;29.37;;
20179;SDS011;10249;48.900;9.090;2022-12-10T12:52:32;32.30;;;26.77;;
20179;SDS011;10249;48.900;9.090;2022-12-10T12:55:02;23.47;;;21.07;;
20179;SDS011;10249;48.900;9.090;2022-12-10T12:57:32;19.87;;;18.03;;
20179;SDS011;10249;48.900;9.090;2022-12-10T13:00:03;39.03;;;30.87;;
20179;SDS011;10249;48.900;9.090;2022-12-10T13:02:48;31.70;;;26.77;;
20179;SDS011;10249;48.900;9.090;2022-12-10T13:05:20;31.37;;;25.03;;
20179;SDS011;10249;48.900;9.090;2022-12-10T13:10:42;38.43;;;28.87;;
20179;SDS011;10249;48.900;9.090;2022-12-10T13:13:19;25.20;;;22.50;;
20179;SDS011;10249;48.900;9.090;2022-12-10T13:15:49;33.93;;;27.90;;
20179;SDS011;10249;48.900;9.090;2022-12-10T13:21:25;32.43;;;25.23;;
20179;SDS011;10249;48.900;9.090;2022-12-10T13:23:53;31.83;;;27.30;;
20179;SDS011;10249;48.900;9.090;2022-12-10T13:26:26;31.40;;;24.97;;
20179;SDS011;10249;48.900;9.090;2022-12-10T13:28:53;23.03;;;20.77;;
20179;SDS011;10249;48.900;9.090;2022-12-10T13:31:36;26.17;;;21.33;;
20179;SDS011;10249;48.900;9.090;2022-12-10T13:39:44;34.63;;;29.87;;
20179;SDS011;10249;48.900;9.090;2022-12-10T13:42:26;30.30;;;26.00;;
20179;SDS011;10249;48.900;9.090;2022-12-10T13:45:23;35.27;;;29.40;;
20179;SDS011;10249;48.900;9.090;2022-12-10T13:47:52;37.40;;;30.40;;
20179;SDS011;10249;48.900;9.090;2022-12-10T13:50:20;30.63;;;26.87;;
20179;SDS011;10249;48.900;9.090;2022-12-10T13:52:53;33.30;;;28.07;;
20179;SDS011;10249;48.900;9.090;2022-12-10T13:55:26;34.60;;;30.30;;
20179;SDS011;10249;48.900;9.090;2022-12-10T13:58:03;28.30;;;24.27;;
20179;SDS011;10249;48.900;9.090;2022-12-10T14:00:35;27.67;;;24.77;;
20179;SDS011;10249;48.900;9.090;2022-12-10T14:03:14;31.70;;;25.67;;
20179;SDS011;10249;48.900;9.090;2022-12-10T14:05:58;30.97;;;27.63;;
20179;SDS011;10249;48.900;9.090;2022-12-10T14:08:31;34.93;;;28.27;;
20179;SDS011;10249;48.900;9.090;2022-12-10T14:10:59;29.83;;;26.10;;
20179;SDS011;10249;48.900;9.090;2022-12-10T14:13:30;32.07;;;26.70;;
20179;SDS011;10249;48.900;9.090;2022-12-10T14:15:58;31.67;;;26.50;;
20179;SDS011;10249;48.900;9.090;2022-12-10T14:18:27;30.83;;;26.47;;
20179;SDS011;10249;48.900;9.090;2022-12-10T14:20:55;28.83;;;25.73;;
20179;SDS011;10249;48.900;9.090;2022-12-10T14:23:24;26.93;;;23.83;;
20179;SDS011;10249;48.900;9.090;2022-12-10T14:26:06;29.07;;;24.37;;
20179;SDS011;10249;48.900;9.090;2022-12-10T14:28:38;29.43;;;26.23;;
20179;SDS011;10249;48.900;9.090;2022-12-10T14:31:07;29.13;;;26.10;;
20179;SDS011;10249;48.900;9.090;2022-12-10T14:33:37;26.70;;;23.07;;
20179;SDS011;10249;48.900;9.090;2022-12-10T14:36:04;37.57;;;29.97;;
20179;SDS011;10249;48.900;9.090;2022-12-10T14:38:32;29.30;;;26.10;;
20179;SDS011;10249;48.900;9.090;2022-12-10T14:41:00;43.03;;;32.20;;
20179;SDS011;10249;48.900;9.090;2022-12-10T14:43:30;41.03;;;30.03;;
20179;SDS011;10249;48.900;9.090;2022-12-10T14:46:00;31.50;;;27.73;;
20179;SDS011;10249;48.900;9.090;2022-12-10T14:48:29;34.17;;;27.30;;
20179;SDS011;10249;48.900;9.090;2022-12-10T14:50:56;31.63;;;27.17;;
20179;SDS011;10249;48.900;9.090;2022-12-10T14:53:30;30.67;;;27.40;;
20179;SDS011;10249;48.900;9.090;2022-12-10T14:55:58;30.70;;;25.90;;